Winooski, Vermont
Current Conditions -  °F | °C
As of 1:54 PM on Saturday 25 Oct 2014 (Local Time) from KBTV Reporting Station
Clear Clear  
Wind Chill: 13°   Ceiling: Unl
Heat Index: 13°   Visibility: 10mi
Dew Point:   Wind: 9mph
Humidity: 57%   Direction: 200°SSW
Pressure: 29.61"   Gusts: NA
Location:  44.49°N, 73.19°W
Report Text: KBTV 251754Z 20008KT 10SM CLR 13/05 A2961 RMK AO2 SLP027 T01330050 10139 20022 58044
Loading
Personal Weather Stations






























Interactive Weather Map
Tropical Storm Tracking
New forecast layout! Learn more

10-Day Weather Forecast

Advertisements
Track Severe Weather on mobile